sensor_id;sensor_type;location;lat;lon;timestamp;P1;durP1;ratioP1;P2;durP2;ratioP2
44987;SDS011;35735;52.226;21.254;2022-10-26T00:02:57;15.35;;;10.52;;
44987;SDS011;35735;52.226;21.254;2022-10-26T00:07:58;14.30;;;10.85;;
44987;SDS011;35735;52.226;21.254;2022-10-26T00:12:59;11.95;;;10.18;;
44987;SDS011;35735;52.226;21.254;2022-10-26T00:18:00;13.40;;;11.73;;
44987;SDS011;35735;52.226;21.254;2022-10-26T00:23:00;13.77;;;11.05;;
44987;SDS011;35735;52.226;21.254;2022-10-26T00:28:01;14.20;;;11.45;;
44987;SDS011;35735;52.226;21.254;2022-10-26T00:33:02;13.90;;;10.90;;
44987;SDS011;35735;52.226;21.254;2022-10-26T00:38:02;16.17;;;11.93;;
44987;SDS011;35735;52.226;21.254;2022-10-26T00:43:03;14.15;;;11.00;;
44987;SDS011;35735;52.226;21.254;2022-10-26T00:48:19;14.63;;;11.10;;
44987;SDS011;35735;52.226;21.254;2022-10-26T00:53:26;15.25;;;12.60;;
44987;SDS011;35735;52.226;21.254;2022-10-26T00:58:28;17.40;;;13.10;;
44987;SDS011;35735;52.226;21.254;2022-10-26T01:03:29;19.08;;;13.77;;
44987;SDS011;35735;52.226;21.254;2022-10-26T01:08:31;20.70;;;13.80;;
44987;SDS011;35735;52.226;21.254;2022-10-26T01:13:32;17.98;;;14.63;;
44987;SDS011;35735;52.226;21.254;2022-10-26T01:18:49;21.08;;;15.63;;
44987;SDS011;35735;52.226;21.254;2022-10-26T01:35:23;20.90;;;15.20;;
44987;SDS011;35735;52.226;21.254;2022-10-26T01:40:35;19.75;;;15.13;;
44987;SDS011;35735;52.226;21.254;2022-10-26T01:45:41;18.75;;;15.85;;
44987;SDS011;35735;52.226;21.254;2022-10-26T01:50:47;16.98;;;14.93;;
44987;SDS011;35735;52.226;21.254;2022-10-26T01:55:53;21.05;;;14.38;;
44987;SDS011;35735;52.226;21.254;2022-10-26T02:11:54;16.20;;;14.20;;
44987;SDS011;35735;52.226;21.254;2022-10-26T02:17:01;19.65;;;14.25;;
44987;SDS011;35735;52.226;21.254;2022-10-26T02:22:12;20.05;;;14.32;;
44987;SDS011;35735;52.226;21.254;2022-10-26T02:27:31;15.07;;;13.13;;
44987;SDS011;35735;52.226;21.254;2022-10-26T02:32:39;18.50;;;14.40;;
44987;SDS011;35735;52.226;21.254;2022-10-26T02:37:45;20.75;;;15.35;;
44987;SDS011;35735;52.226;21.254;2022-10-26T02:42:47;20.00;;;13.32;;
44987;SDS011;35735;52.226;21.254;2022-10-26T02:47:51;19.80;;;14.48;;
44987;SDS011;35735;52.226;21.254;2022-10-26T02:52:56;17.15;;;14.05;;
44987;SDS011;35735;52.226;21.254;2022-10-26T02:58:25;19.12;;;13.77;;
44987;SDS011;35735;52.226;21.254;2022-10-26T03:03:30;15.18;;;13.57;;
44987;SDS011;35735;52.226;21.254;2022-10-26T03:08:31;16.65;;;13.85;;
44987;SDS011;35735;52.226;21.254;2022-10-26T03:13:31;19.42;;;14.63;;
44987;SDS011;35735;52.226;21.254;2022-10-26T03:18:32;17.12;;;15.05;;
44987;SDS011;35735;52.226;21.254;2022-10-26T03:23:32;18.75;;;14.60;;
44987;SDS011;35735;52.226;21.254;2022-10-26T03:28:33;18.52;;;14.73;;
44987;SDS011;35735;52.226;21.254;2022-10-26T03:33:33;20.25;;;14.98;;
44987;SDS011;35735;52.226;21.254;2022-10-26T03:38:34;22.50;;;16.45;;
44987;SDS011;35735;52.226;21.254;2022-10-26T03:43:34;21.70;;;14.65;;
44987;SDS011;35735;52.226;21.254;2022-10-26T03:48:35;18.67;;;16.08;;
44987;SDS011;35735;52.226;21.254;2022-10-26T03:53:35;18.23;;;15.82;;
44987;SDS011;35735;52.226;21.254;2022-10-26T03:58:36;18.55;;;15.80;;
44987;SDS011;35735;52.226;21.254;2022-10-26T04:03:36;23.25;;;16.77;;
44987;SDS011;35735;52.226;21.254;2022-10-26T04:08:37;23.23;;;16.55;;
44987;SDS011;35735;52.226;21.254;2022-10-26T04:13:38;20.60;;;15.65;;
44987;SDS011;35735;52.226;21.254;2022-10-26T04:18:38;19.73;;;14.93;;
44987;SDS011;35735;52.226;21.254;2022-10-26T04:23:39;19.12;;;14.30;;
44987;SDS011;35735;52.226;21.254;2022-10-26T04:28:39;17.95;;;14.57;;
44987;SDS011;35735;52.226;21.254;2022-10-26T04:33:40;18.12;;;14.15;;
44987;SDS011;35735;52.226;21.254;2022-10-26T04:38:40;18.20;;;13.90;;
44987;SDS011;35735;52.226;21.254;2022-10-26T04:43:41;17.48;;;13.32;;
44987;SDS011;35735;52.226;21.254;2022-10-26T04:48:41;18.98;;;14.30;;
44987;SDS011;35735;52.226;21.254;2022-10-26T04:53:42;21.00;;;14.05;;
44987;SDS011;35735;52.226;21.254;2022-10-26T04:58:42;19.40;;;13.77;;
44987;SDS011;35735;52.226;21.254;2022-10-26T05:03:43;19.90;;;14.15;;
44987;SDS011;35735;52.226;21.254;2022-10-26T05:08:43;17.50;;;13.80;;
44987;SDS011;35735;52.226;21.254;2022-10-26T05:13:45;23.83;;;14.43;;
44987;SDS011;35735;52.226;21.254;2022-10-26T05:18:46;24.27;;;15.13;;
44987;SDS011;35735;52.226;21.254;2022-10-26T05:23:48;24.60;;;15.73;;
44987;SDS011;35735;52.226;21.254;2022-10-26T05:28:50;20.12;;;16.23;;
44987;SDS011;35735;52.226;21.254;2022-10-26T05:33:51;24.00;;;15.70;;
44987;SDS011;35735;52.226;21.254;2022-10-26T05:38:52;22.85;;;16.35;;
44987;SDS011;35735;52.226;21.254;2022-10-26T05:43:52;21.83;;;16.73;;
44987;SDS011;35735;52.226;21.254;2022-10-26T05:48:53;23.25;;;17.00;;
44987;SDS011;35735;52.226;21.254;2022-10-26T05:53:53;25.77;;;17.80;;
44987;SDS011;35735;52.226;21.254;2022-10-26T05:58:54;22.05;;;16.58;;
44987;SDS011;35735;52.226;21.254;2022-10-26T06:04:13;23.65;;;17.48;;
44987;SDS011;35735;52.226;21.254;2022-10-26T06:09:25;25.27;;;17.77;;
44987;SDS011;35735;52.226;21.254;2022-10-26T06:14:26;24.85;;;18.77;;
44987;SDS011;35735;52.226;21.254;2022-10-26T06:30:34;18.90;;;14.23;;
44987;SDS011;35735;52.226;21.254;2022-10-26T06:40:39;18.02;;;13.32;;
44987;SDS011;35735;52.226;21.254;2022-10-26T06:45:43;17.67;;;13.00;;
44987;SDS011;35735;52.226;21.254;2022-10-26T06:50:49;18.60;;;13.25;;
44987;SDS011;35735;52.226;21.254;2022-10-26T06:55:52;17.98;;;13.07;;
44987;SDS011;35735;52.226;21.254;2022-10-26T07:00:53;17.37;;;13.15;;
44987;SDS011;35735;52.226;21.254;2022-10-26T07:05:55;21.48;;;13.60;;
44987;SDS011;35735;52.226;21.254;2022-10-26T07:10:56;20.40;;;13.02;;
44987;SDS011;35735;52.226;21.254;2022-10-26T07:15:56;20.70;;;13.20;;
44987;SDS011;35735;52.226;21.254;2022-10-26T07:20:57;25.27;;;17.55;;
44987;SDS011;35735;52.226;21.254;2022-10-26T07:25:58;19.98;;;12.85;;
44987;SDS011;35735;52.226;21.254;2022-10-26T07:30:59;15.48;;;11.05;;
44987;SDS011;35735;52.226;21.254;2022-10-26T07:36:00;12.68;;;9.93;;
44987;SDS011;35735;52.226;21.254;2022-10-26T07:41:01;16.58;;;10.90;;
44987;SDS011;35735;52.226;21.254;2022-10-26T07:46:02;17.23;;;10.70;;
44987;SDS011;35735;52.226;21.254;2022-10-26T07:51:02;14.68;;;9.82;;
44987;SDS011;35735;52.226;21.254;2022-10-26T07:56:03;14.55;;;9.75;;
44987;SDS011;35735;52.226;21.254;2022-10-26T08:01:08;14.43;;;8.93;;
44987;SDS011;35735;52.226;21.254;2022-10-26T08:06:11;14.00;;;9.88;;
44987;SDS011;35735;52.226;21.254;2022-10-26T08:11:12;11.43;;;8.85;;
44987;SDS011;35735;52.226;21.254;2022-10-26T08:16:13;16.67;;;10.57;;
44987;SDS011;35735;52.226;21.254;2022-10-26T08:21:14;19.58;;;11.02;;
44987;SDS011;35735;52.226;21.254;2022-10-26T08:26:14;18.70;;;11.10;;
44987;SDS011;35735;52.226;21.254;2022-10-26T08:31:15;17.65;;;11.90;;
44987;SDS011;35735;52.226;21.254;2022-10-26T08:36:16;17.15;;;12.40;;
44987;SDS011;35735;52.226;21.254;2022-10-26T08:46:39;20.55;;;13.30;;
44987;SDS011;35735;52.226;21.254;2022-10-26T08:51:44;18.37;;;13.43;;
44987;SDS011;35735;52.226;21.254;2022-10-26T08:56:48;21.48;;;14.05;;
44987;SDS011;35735;52.226;21.254;2022-10-26T09:01:54;21.73;;;13.57;;
44987;SDS011;35735;52.226;21.254;2022-10-26T09:28:55;16.20;;;11.50;;
44987;SDS011;35735;52.226;21.254;2022-10-26T09:34:01;17.35;;;12.50;;
44987;SDS011;35735;52.226;21.254;2022-10-26T09:39:27;17.48;;;13.10;;
44987;SDS011;35735;52.226;21.254;2022-10-26T09:44:38;21.05;;;13.50;;
44987;SDS011;35735;52.226;21.254;2022-10-26T09:49:46;22.80;;;14.73;;
44987;SDS011;35735;52.226;21.254;2022-10-26T09:54:52;20.80;;;13.70;;
44987;SDS011;35735;52.226;21.254;2022-10-26T09:59:53;19.58;;;13.62;;
44987;SDS011;35735;52.226;21.254;2022-10-26T10:04:53;20.23;;;13.50;;
44987;SDS011;35735;52.226;21.254;2022-10-26T10:10:27;17.45;;;12.95;;
44987;SDS011;35735;52.226;21.254;2022-10-26T10:15:22;16.58;;;11.05;;
44987;SDS011;35735;52.226;21.254;2022-10-26T10:20:30;16.12;;;10.93;;
44987;SDS011;35735;52.226;21.254;2022-10-26T10:25:35;14.57;;;11.20;;
44987;SDS011;35735;52.226;21.254;2022-10-26T10:30:39;17.30;;;11.45;;
44987;SDS011;35735;52.226;21.254;2022-10-26T10:35:55;15.65;;;11.85;;
44987;SDS011;35735;52.226;21.254;2022-10-26T10:40:57;15.60;;;11.45;;
44987;SDS011;35735;52.226;21.254;2022-10-26T10:45:59;23.83;;;12.35;;
44987;SDS011;35735;52.226;21.254;2022-10-26T10:51:06;20.40;;;11.57;;
44987;SDS011;35735;52.226;21.254;2022-10-26T10:56:12;19.27;;;11.63;;
44987;SDS011;35735;52.226;21.254;2022-10-26T11:01:44;16.42;;;11.12;;
44987;SDS011;35735;52.226;21.254;2022-10-26T11:07:01;16.87;;;10.10;;
44987;SDS011;35735;52.226;21.254;2022-10-26T11:17:21;13.73;;;8.73;;
44987;SDS011;35735;52.226;21.254;2022-10-26T11:22:28;12.02;;;7.80;;
44987;SDS011;35735;52.226;21.254;2022-10-26T11:27:38;13.45;;;8.57;;
44987;SDS011;35735;52.226;21.254;2022-10-26T11:32:59;17.08;;;8.63;;
44987;SDS011;35735;52.226;21.254;2022-10-26T11:38:15;13.95;;;8.88;;
44987;SDS011;35735;52.226;21.254;2022-10-26T11:43:32;15.00;;;8.90;;
44987;SDS011;35735;52.226;21.254;2022-10-26T11:48:41;15.93;;;8.57;;
44987;SDS011;35735;52.226;21.254;2022-10-26T11:53:47;15.55;;;9.07;;
44987;SDS011;35735;52.226;21.254;2022-10-26T11:58:50;17.15;;;8.52;;
44987;SDS011;35735;52.226;21.254;2022-10-26T12:03:52;13.43;;;8.73;;
44987;SDS011;35735;52.226;21.254;2022-10-26T12:08:56;30.95;;;13.93;;
44987;SDS011;35735;52.226;21.254;2022-10-26T12:14:12;13.82;;;9.00;;
44987;SDS011;35735;52.226;21.254;2022-10-26T12:19:23;15.85;;;10.60;;
44987;SDS011;35735;52.226;21.254;2022-10-26T12:24:32;15.23;;;9.88;;
44987;SDS011;35735;52.226;21.254;2022-10-26T12:39:44;14.73;;;9.98;;
44987;SDS011;35735;52.226;21.254;2022-10-26T12:55:25;11.48;;;9.15;;
44987;SDS011;35735;52.226;21.254;2022-10-26T13:11:33;16.85;;;10.05;;
44987;SDS011;35735;52.226;21.254;2022-10-26T13:16:36;12.45;;;9.38;;
44987;SDS011;35735;52.226;21.254;2022-10-26T13:21:42;13.48;;;8.30;;
44987;SDS011;35735;52.226;21.254;2022-10-26T13:32:05;12.77;;;7.47;;
44987;SDS011;35735;52.226;21.254;2022-10-26T13:37:17;10.02;;;6.30;;
44987;SDS011;35735;52.226;21.254;2022-10-26T13:42:25;11.27;;;6.93;;
44987;SDS011;35735;52.226;21.254;2022-10-26T13:47:45;12.02;;;6.40;;
44987;SDS011;35735;52.226;21.254;2022-10-26T13:53:05;10.30;;;6.12;;
44987;SDS011;35735;52.226;21.254;2022-10-26T13:58:19;11.30;;;6.85;;
44987;SDS011;35735;52.226;21.254;2022-10-26T14:03:30;9.95;;;7.25;;
44987;SDS011;35735;52.226;21.254;2022-10-26T14:08:31;11.75;;;6.43;;
44987;SDS011;35735;52.226;21.254;2022-10-26T14:13:32;14.45;;;7.20;;
44987;SDS011;35735;52.226;21.254;2022-10-26T14:18:33;11.20;;;6.87;;
44987;SDS011;35735;52.226;21.254;2022-10-26T14:23:36;12.98;;;7.30;;
44987;SDS011;35735;52.226;21.254;2022-10-26T14:28:47;14.27;;;7.12;;
44987;SDS011;35735;52.226;21.254;2022-10-26T14:33:51;13.25;;;7.47;;
44987;SDS011;35735;52.226;21.254;2022-10-26T14:38:54;13.45;;;6.82;;
44987;SDS011;35735;52.226;21.254;2022-10-26T14:44:00;11.38;;;7.12;;
44987;SDS011;35735;52.226;21.254;2022-10-26T14:49:01;10.07;;;6.90;;
44987;SDS011;35735;52.226;21.254;2022-10-26T14:54:03;13.23;;;6.80;;
44987;SDS011;35735;52.226;21.254;2022-10-26T14:59:10;13.48;;;7.28;;
44987;SDS011;35735;52.226;21.254;2022-10-26T15:09:45;14.82;;;7.57;;
44987;SDS011;35735;52.226;21.254;2022-10-26T15:14:48;11.60;;;7.50;;
44987;SDS011;35735;52.226;21.254;2022-10-26T15:19:50;12.95;;;7.80;;
44987;SDS011;35735;52.226;21.254;2022-10-26T15:24:52;12.52;;;7.57;;
44987;SDS011;35735;52.226;21.254;2022-10-26T15:30:10;10.90;;;8.02;;
44987;SDS011;35735;52.226;21.254;2022-10-26T15:35:31;9.50;;;7.47;;
44987;SDS011;35735;52.226;21.254;2022-10-26T15:40:31;17.75;;;8.82;;
44987;SDS011;35735;52.226;21.254;2022-10-26T15:45:32;12.88;;;8.00;;
44987;SDS011;35735;52.226;21.254;2022-10-26T15:50:37;13.93;;;9.23;;
44987;SDS011;35735;52.226;21.254;2022-10-26T15:55:38;20.08;;;10.23;;
44987;SDS011;35735;52.226;21.254;2022-10-26T16:00:38;15.45;;;8.70;;
44987;SDS011;35735;52.226;21.254;2022-10-26T16:05:39;17.23;;;9.75;;
44987;SDS011;35735;52.226;21.254;2022-10-26T16:10:40;27.70;;;11.15;;
44987;SDS011;35735;52.226;21.254;2022-10-26T16:15:40;49.58;;;14.15;;
44987;SDS011;35735;52.226;21.254;2022-10-26T16:20:43;29.08;;;12.10;;
44987;SDS011;35735;52.226;21.254;2022-10-26T16:25:45;25.45;;;11.32;;
44987;SDS011;35735;52.226;21.254;2022-10-26T16:30:46;19.83;;;11.25;;
44987;SDS011;35735;52.226;21.254;2022-10-26T16:35:53;16.17;;;9.57;;
44987;SDS011;35735;52.226;21.254;2022-10-26T16:41:05;21.05;;;11.40;;
44987;SDS011;35735;52.226;21.254;2022-10-26T16:46:09;17.10;;;10.50;;
44987;SDS011;35735;52.226;21.254;2022-10-26T16:51:13;21.08;;;14.82;;
44987;SDS011;35735;52.226;21.254;2022-10-26T16:56:17;27.17;;;15.70;;
44987;SDS011;35735;52.226;21.254;2022-10-26T17:01:20;22.42;;;14.10;;
44987;SDS011;35735;52.226;21.254;2022-10-26T17:06:21;20.95;;;13.75;;
44987;SDS011;35735;52.226;21.254;2022-10-26T17:11:22;19.80;;;14.77;;
44987;SDS011;35735;52.226;21.254;2022-10-26T17:16:23;24.02;;;14.65;;
44987;SDS011;35735;52.226;21.254;2022-10-26T17:21:33;23.73;;;15.52;;
44987;SDS011;35735;52.226;21.254;2022-10-26T17:26:34;21.23;;;15.00;;
44987;SDS011;35735;52.226;21.254;2022-10-26T17:31:35;25.85;;;17.30;;
44987;SDS011;35735;52.226;21.254;2022-10-26T17:36:36;26.75;;;19.00;;
44987;SDS011;35735;52.226;21.254;2022-10-26T17:41:37;28.73;;;18.95;;
44987;SDS011;35735;52.226;21.254;2022-10-26T17:46:38;29.40;;;19.77;;
44987;SDS011;35735;52.226;21.254;2022-10-26T17:51:39;31.60;;;20.73;;
44987;SDS011;35735;52.226;21.254;2022-10-26T17:56:40;35.08;;;22.33;;
44987;SDS011;35735;52.226;21.254;2022-10-26T18:01:41;33.17;;;21.92;;
44987;SDS011;35735;52.226;21.254;2022-10-26T18:06:42;47.70;;;33.92;;
44987;SDS011;35735;52.226;21.254;2022-10-26T18:11:43;42.90;;;31.70;;
44987;SDS011;35735;52.226;21.254;2022-10-26T18:16:43;38.45;;;26.85;;
44987;SDS011;35735;52.226;21.254;2022-10-26T18:21:44;41.03;;;27.92;;
44987;SDS011;35735;52.226;21.254;2022-10-26T18:26:44;47.00;;;30.55;;
44987;SDS011;35735;52.226;21.254;2022-10-26T18:31:45;44.38;;;29.67;;
44987;SDS011;35735;52.226;21.254;2022-10-26T18:36:46;42.53;;;28.98;;
44987;SDS011;35735;52.226;21.254;2022-10-26T18:41:46;48.10;;;32.70;;
44987;SDS011;35735;52.226;21.254;2022-10-26T18:46:47;53.85;;;34.45;;
44987;SDS011;35735;52.226;21.254;2022-10-26T18:51:47;48.35;;;33.65;;
44987;SDS011;35735;52.226;21.254;2022-10-26T18:56:48;60.10;;;39.85;;
44987;SDS011;35735;52.226;21.254;2022-10-26T19:01:48;61.08;;;40.00;;
44987;SDS011;35735;52.226;21.254;2022-10-26T19:06:49;56.85;;;39.20;;
44987;SDS011;35735;52.226;21.254;2022-10-26T19:11:49;56.58;;;34.03;;
44987;SDS011;35735;52.226;21.254;2022-10-26T19:16:50;53.75;;;34.83;;
44987;SDS011;35735;52.226;21.254;2022-10-26T19:21:51;52.75;;;36.55;;
44987;SDS011;35735;52.226;21.254;2022-10-26T19:26:52;55.30;;;36.58;;
44987;SDS011;35735;52.226;21.254;2022-10-26T19:31:52;54.78;;;34.83;;
44987;SDS011;35735;52.226;21.254;2022-10-26T19:36:53;49.47;;;30.88;;
44987;SDS011;35735;52.226;21.254;2022-10-26T19:41:53;42.45;;;27.23;;
44987;SDS011;35735;52.226;21.254;2022-10-26T19:46:54;44.72;;;27.73;;
44987;SDS011;35735;52.226;21.254;2022-10-26T19:51:54;45.58;;;28.00;;
44987;SDS011;35735;52.226;21.254;2022-10-26T19:56:55;52.90;;;31.20;;
44987;SDS011;35735;52.226;21.254;2022-10-26T20:01:55;60.50;;;36.25;;
44987;SDS011;35735;52.226;21.254;2022-10-26T20:06:56;49.13;;;31.00;;
44987;SDS011;35735;52.226;21.254;2022-10-26T20:11:57;56.40;;;35.97;;
44987;SDS011;35735;52.226;21.254;2022-10-26T20:16:57;63.10;;;40.05;;
44987;SDS011;35735;52.226;21.254;2022-10-26T20:21:58;65.25;;;42.55;;
44987;SDS011;35735;52.226;21.254;2022-10-26T20:26:58;64.43;;;41.15;;
44987;SDS011;35735;52.226;21.254;2022-10-26T20:31:59;62.03;;;39.88;;
44987;SDS011;35735;52.226;21.254;2022-10-26T20:36:59;67.07;;;41.97;;
44987;SDS011;35735;52.226;21.254;2022-10-26T20:42:00;73.00;;;44.25;;
44987;SDS011;35735;52.226;21.254;2022-10-26T20:47:02;62.25;;;42.90;;
44987;SDS011;35735;52.226;21.254;2022-10-26T20:52:03;66.32;;;42.75;;
44987;SDS011;35735;52.226;21.254;2022-10-26T20:57:19;75.70;;;48.65;;
44987;SDS011;35735;52.226;21.254;2022-10-26T21:02:30;76.85;;;50.40;;
44987;SDS011;35735;52.226;21.254;2022-10-26T21:07:31;70.22;;;47.30;;
44987;SDS011;35735;52.226;21.254;2022-10-26T21:12:31;81.00;;;49.63;;
44987;SDS011;35735;52.226;21.254;2022-10-26T21:17:32;69.68;;;47.67;;
44987;SDS011;35735;52.226;21.254;2022-10-26T21:22:33;71.32;;;46.63;;
44987;SDS011;35735;52.226;21.254;2022-10-26T21:27:33;74.97;;;45.90;;
44987;SDS011;35735;52.226;21.254;2022-10-26T21:32:34;69.65;;;45.60;;
44987;SDS011;35735;52.226;21.254;2022-10-26T21:37:34;71.28;;;44.58;;
44987;SDS011;35735;52.226;21.254;2022-10-26T21:42:35;65.97;;;44.92;;
44987;SDS011;35735;52.226;21.254;2022-10-26T21:47:36;69.57;;;46.22;;
44987;SDS011;35735;52.226;21.254;2022-10-26T21:52:36;78.82;;;46.08;;
44987;SDS011;35735;52.226;21.254;2022-10-26T21:57:37;76.00;;;47.03;;
44987;SDS011;35735;52.226;21.254;2022-10-26T22:02:38;88.03;;;55.90;;
44987;SDS011;35735;52.226;21.254;2022-10-26T22:07:38;76.15;;;49.08;;
44987;SDS011;35735;52.226;21.254;2022-10-26T22:12:39;79.90;;;49.15;;
44987;SDS011;35735;52.226;21.254;2022-10-26T22:17:39;73.45;;;46.22;;
44987;SDS011;35735;52.226;21.254;2022-10-26T22:22:40;72.78;;;46.10;;
44987;SDS011;35735;52.226;21.254;2022-10-26T22:27:41;75.20;;;45.40;;
44987;SDS011;35735;52.226;21.254;2022-10-26T22:32:41;65.53;;;43.25;;
44987;SDS011;35735;52.226;21.254;2022-10-26T22:37:42;71.28;;;45.03;;
44987;SDS011;35735;52.226;21.254;2022-10-26T22:42:43;64.95;;;42.42;;
44987;SDS011;35735;52.226;21.254;2022-10-26T22:47:43;64.57;;;42.60;;
44987;SDS011;35735;52.226;21.254;2022-10-26T22:52:44;63.65;;;42.42;;
44987;SDS011;35735;52.226;21.254;2022-10-26T22:57:44;63.17;;;41.30;;
44987;SDS011;35735;52.226;21.254;2022-10-26T23:02:45;64.68;;;41.13;;
44987;SDS011;35735;52.226;21.254;2022-10-26T23:07:46;68.55;;;42.62;;
44987;SDS011;35735;52.226;21.254;2022-10-26T23:12:49;64.37;;;39.65;;
44987;SDS011;35735;52.226;21.254;2022-10-26T23:17:51;57.25;;;38.50;;
44987;SDS011;35735;52.226;21.254;2022-10-26T23:22:52;60.90;;;39.42;;
44987;SDS011;35735;52.226;21.254;2022-10-26T23:27:53;61.70;;;39.38;;
44987;SDS011;35735;52.226;21.254;2022-10-26T23:32:54;61.37;;;38.45;;
44987;SDS011;35735;52.226;21.254;2022-10-26T23:37:58;57.20;;;37.42;;
44987;SDS011;35735;52.226;21.254;2022-10-26T23:42:59;56.05;;;35.58;;
44987;SDS011;35735;52.226;21.254;2022-10-26T23:47:59;59.97;;;37.47;;
44987;SDS011;35735;52.226;21.254;2022-10-26T23:53:00;56.05;;;36.38;;
44987;SDS011;35735;52.226;21.254;2022-10-26T23:58:00;54.05;;;35.88;;
